Time;durP1;ratioP1;P1;durP2;ratioP2;P2;SDS_P1;SDS_P2;PMS_P1;PMS_P2;Temp;Humidity;BMP_temperature;BMP_pressure;BME280_temperature;BME280_humidity;BME280_pressure;Samples;Min_cycle;Max_cycle;Signal;HPM_P1;HPM_P2
2023/05/21 00:02:10;;;;;;;20.05;13.70;;;14.90;99.90;;;14.59;100.00;96857.13;4992675;28;20397;-80
2023/05/21 00:04:40;;;;;;;16.58;13.00;;;14.80;99.90;;;14.56;100.00;96862.56;5000810;28;20029;-80
2023/05/21 00:07:10;;;;;;;19.88;13.57;;;14.80;99.90;;;14.50;100.00;96857.66;4998607;28;20029;-81
2023/05/21 00:09:37;;;;;;;18.98;13.18;;;14.80;99.90;;;14.44;100.00;96852.72;5001548;28;20129;-80
2023/05/21 00:12:05;;;;;;;18.08;13.90;;;14.70;99.90;;;14.41;100.00;96847.59;5022626;28;20238;-82
2023/05/21 00:14:30;;;;;;;17.25;13.40;;;14.70;99.90;;;14.38;100.00;96853.94;5028707;28;20057;-80
2023/05/21 00:16:56;;;;;;;16.63;13.18;;;14.60;99.90;;;14.29;100.00;96833.28;5022941;28;20030;-80
2023/05/21 00:19:22;;;;;;;17.00;12.85;;;14.60;99.90;;;14.29;100.00;96838.59;5024104;28;20055;-78
2023/05/21 00:21:48;;;;;;;14.88;12.10;;;14.60;99.90;;;14.27;100.00;96844.00;5008474;28;20033;-80
2023/05/21 00:24:14;;;;;;;17.02;13.00;;;14.60;99.90;;;14.13;100.00;96828.91;5006306;28;20481;-79
2023/05/21 00:26:40;;;;;;;19.10;14.63;;;14.50;99.90;;;14.20;100.00;96844.47;4989183;28;20040;-79
2023/05/21 00:29:06;;;;;;;19.08;13.95;;;14.50;99.90;;;14.14;100.00;96837.75;4992414;28;20045;-80
2023/05/21 00:31:32;;;;;;;16.13;13.38;;;14.40;99.90;;;14.08;100.00;96820.38;5016922;28;20025;-81
2023/05/21 00:33:58;;;;;;;17.50;13.10;;;14.40;99.90;;;14.03;100.00;96821.59;5008869;28;20061;-82
2023/05/21 00:36:24;;;;;;;18.38;13.05;;;14.40;99.90;;;14.02;100.00;96814.59;5002317;28;20128;-81
2023/05/21 00:38:50;;;;;;;19.73;12.63;;;14.40;99.90;;;14.13;100.00;96830.72;5002493;28;20141;-79
2023/05/21 00:41:16;;;;;;;19.58;15.35;;;14.40;99.90;;;14.11;100.00;96827.31;5014034;28;20057;-79
2023/05/21 00:43:43;;;;;;;23.35;15.48;;;14.40;99.90;;;13.97;100.00;96800.78;5022222;28;20029;-80
2023/05/21 00:46:19;;;;;;;20.73;16.15;;;14.40;99.90;;;14.03;100.00;96813.66;5025546;28;20048;-81
2023/05/21 00:48:46;;;;;;;19.25;13.98;;;14.40;99.90;;;14.01;100.00;96805.78;4979050;28;20713;-79
2023/05/21 00:51:14;;;;;;;17.13;13.07;;;14.40;99.90;;;14.08;100.00;96815.06;5008457;28;20188;-79
2023/05/21 00:53:40;;;;;;;18.02;13.82;;;14.40;99.90;;;14.04;100.00;96813.56;5004265;28;20042;-78
2023/05/21 00:56:06;;;;;;;17.95;13.82;;;14.30;99.90;;;14.05;100.00;96815.28;4996524;28;20524;-81
2023/05/21 00:58:33;;;;;;;16.15;13.18;;;14.30;99.90;;;14.03;100.00;96811.00;5004997;28;20042;-79
2023/05/21 01:01:02;;;;;;;18.00;13.48;;;14.30;99.90;;;13.91;100.00;96802.84;4996369;28;20561;-81
2023/05/21 01:03:37;;;;;;;19.27;14.25;;;14.30;99.90;;;14.00;100.00;96817.34;5019220;28;20583;-82
2023/05/21 01:06:08;;;;;;;21.08;14.13;;;14.30;99.90;;;13.99;100.00;96812.13;4991564;28;20374;-80
2023/05/21 01:08:36;;;;;;;18.40;14.27;;;14.20;99.90;;;13.93;100.00;96806.25;4997050;28;20026;-80
2023/05/21 01:11:04;;;;;;;18.45;13.43;;;14.30;99.90;;;13.94;100.00;96815.91;4997072;28;20437;-82
2023/05/21 01:13:32;;;;;;;17.38;13.98;;;14.20;99.90;;;13.89;100.00;96811.81;5003719;28;20472;-80
2023/05/21 01:15:58;;;;;;;17.00;14.05;;;14.20;99.90;;;13.91;100.00;96808.16;4998373;28;20893;-80
2023/05/21 01:18:25;;;;;;;19.08;14.02;;;14.20;99.90;;;13.90;100.00;96814.38;4985214;28;20368;-79
2023/05/21 01:20:51;;;;;;;21.95;15.13;;;14.20;99.90;;;13.84;100.00;96795.34;5004353;28;20092;-78
2023/05/21 01:23:18;;;;;;;17.80;14.13;;;14.20;99.90;;;13.79;100.00;96797.44;5000257;28;20030;-80
2023/05/21 01:25:45;;;;;;;17.70;13.80;;;14.10;99.90;;;13.83;100.00;96805.09;4995085;28;20036;-80
2023/05/21 01:28:11;;;;;;;17.95;13.73;;;14.10;99.90;;;13.76;100.00;96793.16;5004245;28;20064;-80
2023/05/21 01:30:40;;;;;;;20.23;13.40;;;14.10;99.90;;;13.75;100.00;96792.31;4999265;28;20611;-79
2023/05/21 01:33:25;;;;;;;16.98;14.38;;;14.10;99.90;;;13.79;100.00;96795.63;5006700;28;20040;-80
2023/05/21 01:36:08;;;;;;;18.63;13.02;;;14.10;99.90;;;13.60;100.00;96772.00;4994447;28;20030;-81
2023/05/21 01:38:48;;;;;;;22.30;15.93;;;14.00;99.90;;;13.63;100.00;96787.72;5002796;28;20127;-82
2023/05/21 01:41:17;;;;;;;19.27;15.20;;;14.00;99.90;;;13.57;100.00;96782.78;4999504;28;20026;-83
2023/05/21 01:43:45;;;;;;;19.95;15.63;;;14.00;99.90;;;13.62;100.00;96803.69;5000535;28;20026;-79
2023/05/21 01:46:16;;;;;;;24.55;15.88;;;13.90;99.90;;;13.55;100.00;96784.69;4987136;28;20029;-80
2023/05/21 01:48:43;;;;;;;20.63;16.27;;;13.90;99.90;;;13.57;100.00;96798.69;4984520;28;20398;-80
2023/05/21 01:51:09;;;;;;;22.20;15.35;;;13.80;99.90;;;13.48;100.00;96786.00;5004101;28;20034;-80
2023/05/21 01:53:37;;;;;;;22.70;16.67;;;13.80;99.90;;;13.46;100.00;96785.19;5003702;28;20077;-80
2023/05/21 01:56:04;;;;;;;22.50;16.60;;;13.80;99.90;;;13.42;100.00;96788.97;5000623;28;20112;-80
2023/05/21 01:58:30;;;;;;;20.45;15.18;;;13.80;99.90;;;13.43;100.00;96786.25;5005047;28;20040;-81
2023/05/21 02:00:55;;;;;;;23.48;16.85;;;13.80;99.90;;;13.39;100.00;96783.84;4999066;28;20041;-80
2023/05/21 02:03:25;;;;;;;20.50;17.27;;;13.80;99.90;;;13.43;100.00;96796.00;5002765;28;20029;-80
2023/05/21 02:05:51;;;;;;;25.65;17.38;;;13.70;99.90;;;13.34;100.00;96782.34;5006126;28;20507;-78
2023/05/21 02:08:18;;;;;;;22.38;16.92;;;13.70;99.90;;;13.39;100.00;96792.66;4997841;28;20025;-80
2023/05/21 02:10:45;;;;;;;21.27;17.02;;;13.70;99.90;;;13.30;100.00;96780.78;4985788;28;20033;-81
2023/05/21 02:13:10;;;;;;;24.00;17.55;;;13.70;99.90;;;13.34;100.00;96787.63;5004780;28;20071;-82
2023/05/21 02:15:37;;;;;;;23.17;17.38;;;13.70;99.90;;;13.22;100.00;96777.72;4998164;28;21788;-80
2023/05/21 02:18:03;;;;;;;23.85;17.05;;;13.60;99.90;;;13.20;100.00;96781.41;4998712;28;20674;-80
2023/05/21 02:20:29;;;;;;;21.60;16.73;;;13.60;99.90;;;13.24;100.00;96791.69;5000013;28;20060;-81
2023/05/21 02:22:55;;;;;;;20.63;15.70;;;13.60;99.90;;;13.25;100.00;96787.28;4989088;28;20069;-81
2023/05/21 02:25:21;;;;;;;18.15;15.20;;;13.60;99.90;;;13.24;100.00;96790.88;4989457;28;20032;-80
2023/05/21 02:27:51;;;;;;;19.55;15.35;;;13.50;99.90;;;13.21;100.00;96789.25;5007860;28;20099;-79
2023/05/21 02:30:17;;;;;;;20.67;15.93;;;13.50;99.90;;;13.20;100.00;96792.00;4982990;28;20052;-82
2023/05/21 02:32:43;;;;;;;19.80;14.77;;;13.50;99.90;;;13.06;100.00;96767.13;4999754;28;20379;-80
2023/05/21 02:35:11;;;;;;;19.33;14.88;;;13.50;99.90;;;13.20;100.00;96790.19;4998569;28;20388;-80
2023/05/21 02:37:42;;;;;;;20.77;14.57;;;13.50;99.90;;;13.09;100.00;96766.13;5001657;28;20463;-83
2023/05/21 02:40:09;;;;;;;21.15;16.30;;;13.50;99.90;;;13.16;100.00;96788.66;5004648;28;20207;-84
2023/05/21 02:42:38;;;;;;;22.33;16.40;;;13.50;99.90;;;13.03;100.00;96761.16;4998475;28;20032;-80
2023/05/21 02:45:06;;;;;;;19.83;15.48;;;13.40;99.90;;;13.17;100.00;96785.06;5017824;28;20038;-82
2023/05/21 02:47:32;;;;;;;24.38;16.02;;;13.40;99.90;;;13.16;100.00;96783.38;4978234;28;20036;-81
2023/05/21 02:50:00;;;;;;;22.77;16.98;;;13.50;99.90;;;13.14;100.00;96772.00;4993879;28;20033;-82
2023/05/21 02:52:25;;;;;;;19.75;15.50;;;13.50;99.90;;;13.14;100.00;96775.50;4997748;28;20498;-80
2023/05/21 02:54:51;;;;;;;21.98;15.25;;;13.40;99.90;;;13.13;100.00;96784.38;4988664;28;20026;-81
2023/05/21 02:57:17;;;;;;;20.40;16.58;;;13.40;99.90;;;12.95;100.00;96766.91;4995797;28;20335;-81
2023/05/21 02:59:44;;;;;;;21.65;16.17;;;13.40;99.90;;;12.99;100.00;96777.25;4989719;28;20081;-82
2023/05/21 03:02:10;;;;;;;21.77;16.63;;;13.40;99.90;;;12.83;100.00;96749.06;4998260;28;20088;-80
2023/05/21 03:04:37;;;;;;;21.15;16.52;;;13.40;99.90;;;12.87;100.00;96759.41;5001824;28;20038;-84
2023/05/21 03:07:04;;;;;;;22.52;16.73;;;13.30;99.90;;;12.96;100.00;96771.28;5003904;28;20033;-81
2023/05/21 03:09:30;;;;;;;22.15;17.38;;;13.30;99.90;;;12.90;100.00;96769.81;5002806;28;20032;-83
2023/05/21 03:11:56;;;;;;;21.75;17.75;;;13.30;99.90;;;12.90;100.00;96776.88;5012191;28;20224;-81
2023/05/21 03:14:23;;;;;;;22.95;16.60;;;13.20;99.90;;;12.76;100.00;96746.78;5004242;28;20029;-82
2023/05/21 03:16:50;;;;;;;23.65;17.35;;;13.20;99.90;;;12.83;100.00;96762.28;5007954;28;20026;-80
2023/05/21 03:19:15;;;;;;;23.02;17.63;;;13.10;99.90;;;12.83;100.00;96759.66;5012696;28;20044;-83
2023/05/21 03:21:41;;;;;;;22.75;17.05;;;13.20;99.90;;;12.80;100.00;96764.19;5011358;28;20026;-82
2023/05/21 03:24:08;;;;;;;23.13;16.27;;;13.20;99.90;;;12.80;100.00;96764.19;5015531;28;20069;-83
2023/05/21 03:26:34;;;;;;;22.73;16.40;;;13.10;99.90;;;12.79;100.00;96769.56;5015367;28;20042;-82
2023/05/21 03:29:00;;;;;;;24.30;18.27;;;13.10;99.90;;;12.69;100.00;96749.84;5013079;28;20079;-81
2023/05/21 03:31:26;;;;;;;20.63;16.55;;;13.10;99.90;;;12.70;100.00;96749.75;5000799;28;20041;-85
2023/05/21 03:33:52;;;;;;;20.23;16.60;;;13.10;99.90;;;12.79;100.00;96766.91;5002340;28;20095;-82
2023/05/21 03:36:19;;;;;;;20.92;15.27;;;13.10;99.90;;;12.75;100.00;96752.16;4994270;28;20113;-82
2023/05/21 03:38:44;;;;;;;24.63;16.25;;;13.10;99.90;;;12.79;100.00;96764.25;4999230;28;20047;-80
2023/05/21 03:41:10;;;;;;;21.10;16.60;;;13.10;99.90;;;12.75;100.00;96760.09;5006443;28;20033;-80
2023/05/21 03:43:36;;;;;;;21.67;15.85;;;13.10;99.90;;;12.70;100.00;96748.91;4991934;28;20508;-82
2023/05/21 03:46:02;;;;;;;21.40;16.20;;;13.10;99.90;;;12.76;100.00;96757.38;5020465;28;20041;-83
2023/05/21 03:48:27;;;;;;;22.08;17.02;;;13.10;99.90;;;12.75;100.00;96762.72;5001605;28;20084;-81
2023/05/21 03:50:53;;;;;;;26.02;18.50;;;13.10;99.90;;;12.68;100.00;96751.63;4996120;28;20034;-84
2023/05/21 03:53:19;;;;;;;24.67;17.63;;;13.00;99.90;;;12.59;100.00;96730.97;5007842;28;20094;-81
2023/05/21 03:55:45;;;;;;;20.63;16.55;;;13.10;99.90;;;12.76;100.00;96759.16;5005504;28;20140;-81
2023/05/21 03:58:10;;;;;;;19.95;16.50;;;13.10;99.90;;;12.76;100.00;96762.66;5000615;28;20070;-80
2023/05/21 04:00:36;;;;;;;21.45;16.50;;;13.00;99.90;;;12.71;100.00;96762.06;4994040;28;20813;-81
2023/05/21 04:03:05;;;;;;;21.60;16.35;;;13.10;99.90;;;12.77;100.00;96780.22;5003231;28;20569;-81
2023/05/21 04:05:32;;;;;;;21.25;15.60;;;13.10;99.90;;;12.65;100.00;96756.25;5003708;28;20119;-80
2023/05/21 04:07:58;;;;;;;26.75;16.95;;;13.00;99.90;;;12.67;100.00;96760.53;5000591;28;20029;-81
2023/05/21 04:10:25;;;;;;;25.00;17.67;;;13.10;99.90;;;12.79;100.00;96782.78;4997444;28;20037;-81
2023/05/21 04:12:51;;;;;;;23.33;18.10;;;13.10;99.90;;;12.70;100.00;96765.63;5002759;28;20212;-84
2023/05/21 04:15:18;;;;;;;25.30;18.30;;;13.10;99.90;;;12.70;100.00;96765.63;5013327;28;20033;-83
2023/05/21 04:17:44;;;;;;;24.98;18.50;;;13.10;99.90;;;12.76;100.00;96782.97;5005059;28;21711;-84
2023/05/21 04:20:12;;;;;;;21.73;16.77;;;13.10;99.90;;;12.83;100.00;96786.09;5011829;28;20040;-83
2023/05/21 04:22:38;;;;;;;23.75;16.10;;;13.20;99.90;;;12.86;100.00;96785.94;5003879;28;20036;-82
2023/05/21 04:25:05;;;;;;;23.17;17.58;;;13.20;99.90;;;12.77;100.00;96780.22;5008711;28;20049;-80
2023/05/21 04:27:31;;;;;;;27.52;18.13;;;13.20;99.90;;;12.87;100.00;96790.31;4992982;28;20041;-80
2023/05/21 04:29:56;;;;;;;21.58;17.20;;;13.20;99.90;;;12.93;100.00;96796.09;5000948;28;20092;-80
2023/05/21 04:32:23;;;;;;;21.73;16.95;;;13.20;99.90;;;12.96;100.00;96792.44;5008978;28;20081;-83
2023/05/21 04:34:49;;;;;;;22.27;16.95;;;13.30;99.90;;;12.89;100.00;96789.28;5016474;28;20094;-85
2023/05/21 04:37:16;;;;;;;25.00;16.35;;;13.30;99.90;;;13.02;100.00;96807.97;5008944;28;20072;-83
2023/05/21 04:39:43;;;;;;;21.50;16.38;;;13.30;99.90;;;13.07;100.00;96805.91;5006564;28;20314;-81
2023/05/21 04:42:12;;;;;;;21.58;16.17;;;13.30;99.90;;;13.11;100.00;96803.94;4994543;28;20022;-81
2023/05/21 04:44:39;;;;;;;22.73;17.13;;;13.40;99.90;;;13.14;100.00;96807.28;5010359;28;20149;-82
2023/05/21 04:47:04;;;;;;;23.58;17.02;;;13.40;99.90;;;13.17;100.00;96808.88;5017376;28;20065;-82
2023/05/21 04:49:33;;;;;;;21.80;17.10;;;13.50;99.90;;;13.21;100.00;96810.44;5015941;28;20033;-82
2023/05/21 04:52:00;;;;;;;26.75;16.83;;;13.50;99.90;;;13.10;100.00;96789.88;5005482;28;20041;-85
2023/05/21 04:54:27;;;;;;;23.02;17.27;;;13.50;99.90;;;13.27;100.00;96818.03;4991857;28;20124;-81
2023/05/21 04:56:53;;;;;;;23.20;16.83;;;13.60;99.90;;;13.21;100.00;96798.97;5003230;28;20071;-81
2023/05/21 04:59:19;;;;;;;25.20;18.42;;;13.60;99.90;;;13.35;100.00;96823.78;5011949;28;20030;-80
2023/05/21 05:01:45;;;;;;;22.45;16.48;;;13.60;99.90;;;13.35;100.00;96807.00;5006524;28;20036;-82
2023/05/21 05:04:11;;;;;;;21.77;15.95;;;13.70;99.90;;;13.45;100.00;96821.44;5020881;28;20021;-82
2023/05/21 05:06:37;;;;;;;23.75;17.60;;;13.70;99.90;;;13.47;100.00;96818.69;5010282;28;20037;-81
2023/05/21 05:09:03;;;;;;;24.58;16.98;;;13.70;99.90;;;13.52;100.00;96817.50;5016001;28;20038;-81
2023/05/21 05:11:29;;;;;;;21.42;15.85;;;13.80;99.90;;;13.50;100.00;96813.25;5000380;28;20036;-81
2023/05/21 05:13:55;;;;;;;21.90;16.52;;;13.80;99.90;;;13.62;100.00;96817.81;4996320;28;20029;-80
2023/05/21 05:16:24;;;;;;;24.15;17.60;;;13.90;99.90;;;13.59;100.00;96815.34;5019595;28;20032;-85
2023/05/21 05:18:53;;;;;;;21.73;17.05;;;13.90;99.90;;;13.55;100.00;96797.94;5006738;28;20100;-81
2023/05/21 05:21:20;;;;;;;21.48;16.30;;;13.90;99.90;;;13.72;100.00;96810.19;4989168;28;20034;-80
2023/05/21 05:23:46;;;;;;;21.13;16.23;;;14.00;99.90;;;13.77;100.00;96815.22;5009788;28;20040;-81
2023/05/21 05:26:12;;;;;;;22.27;16.00;;;14.00;99.90;;;13.80;100.00;96813.25;4998274;28;20112;-81
2023/05/21 05:28:38;;;;;;;21.05;15.50;;;14.10;99.90;;;13.87;100.00;96811.94;5008727;28;20055;-85
2023/05/21 05:31:04;;;;;;;20.92;15.50;;;14.10;99.90;;;13.90;100.00;96806.41;4998701;28;20053;-81
2023/05/21 05:33:30;;;;;;;20.67;15.80;;;14.20;99.90;;;13.95;100.00;96816.75;5011128;28;20090;-83
2023/05/21 05:35:55;;;;;;;21.35;15.00;;;14.20;99.90;;;13.97;100.00;96803.44;5022340;28;21270;-81
2023/05/21 05:38:21;;;;;;;17.67;14.63;;;14.30;99.90;;;14.07;100.00;96815.19;5005789;28;20049;-81
2023/05/21 05:40:47;;;;;;;19.63;14.65;;;14.30;99.90;;;14.02;100.00;96785.44;5002533;28;20104;-80
2023/05/21 05:43:13;;;;;;;19.70;13.95;;;14.40;99.90;;;14.23;100.00;96809.78;5005903;28;20040;-81
2023/05/21 05:45:38;;;;;;;20.27;15.10;;;14.40;99.90;;;14.22;100.00;96800.97;4998757;28;20515;-84
2023/05/21 05:48:05;;;;;;;20.60;14.50;;;14.50;99.90;;;14.37;100.00;96811.59;5006078;28;20037;-83
2023/05/21 05:50:31;;;;;;;18.60;14.30;;;14.60;99.90;;;14.49;100.00;96816.16;5013208;28;20097;-83
2023/05/21 05:52:56;;;;;;;19.73;14.43;;;14.70;99.90;;;14.59;100.00;96813.78;5023606;28;20049;-83
2023/05/21 05:55:23;;;;;;;16.35;13.68;;;14.80;99.90;;;14.60;100.00;96811.06;5016971;28;20033;-80
2023/05/21 05:57:49;;;;;;;19.60;14.82;;;14.90;99.90;;;14.67;100.00;96800.91;4989827;28;20037;-80
2023/05/21 06:00:16;;;;;;;20.63;15.38;;;14.90;99.90;;;14.71;100.00;96797.09;4992026;28;20086;-81
2023/05/21 06:02:42;;;;;;;20.98;16.30;;;15.00;99.90;;;14.78;100.00;96813.50;4997036;28;20041;-81
2023/05/21 06:05:08;;;;;;;19.45;15.20;;;15.10;99.90;;;14.93;100.00;96820.50;5003883;28;20037;-80
2023/05/21 06:07:37;;;;;;;18.85;14.43;;;15.20;99.90;;;15.04;100.00;96817.16;4994524;28;20022;-80
2023/05/21 06:10:06;;;;;;;19.92;15.20;;;15.20;99.90;;;15.05;100.00;96802.91;5008210;28;20141;-80
2023/05/21 06:12:32;;;;;;;18.65;14.60;;;15.30;99.90;;;15.15;100.00;96806.69;5001590;28;20030;-80
2023/05/21 06:14:59;;;;;;;19.58;13.93;;;15.40;99.90;;;15.36;100.00;96824.84;4982443;28;20076;-81
2023/05/21 06:17:25;;;;;;;20.98;13.77;;;15.50;99.90;;;15.37;100.00;96802.63;4991744;28;20102;-84
2023/05/21 06:19:50;;;;;;;19.60;14.30;;;15.60;99.90;;;15.61;100.00;96824.94;5003239;28;20108;-86
2023/05/21 06:22:16;;;;;;;19.23;14.45;;;15.80;99.90;;;15.71;100.00;96827.81;5009913;28;20152;-85
2023/05/21 06:24:42;;;;;;;19.40;14.15;;;15.90;99.90;;;15.71;100.00;96813.69;5001637;28;20037;-81
2023/05/21 06:27:09;;;;;;;16.63;12.98;;;15.90;99.90;;;15.84;100.00;96823.44;5008617;28;20096;-81
2023/05/21 06:29:34;;;;;;;14.25;11.73;;;16.00;99.90;;;15.87;100.00;96818.88;5004770;28;20057;-81
2023/05/21 06:32:00;;;;;;;15.35;12.77;;;16.10;99.90;;;16.03;100.00;96833.66;5010418;28;20033;-85
2023/05/21 06:34:27;;;;;;;18.20;12.85;;;16.20;99.90;;;16.11;100.00;96835.78;5010379;28;20022;-80
2023/05/21 06:36:53;;;;;;;14.65;11.60;;;16.20;99.90;;;16.16;100.00;96835.50;5003699;28;20037;-83
2023/05/21 06:39:18;;;;;;;18.45;14.05;;;16.30;99.90;;;16.11;100.00;96826.97;4988021;28;20044;-84
2023/05/21 06:41:44;;;;;;;16.50;12.68;;;16.30;99.90;;;16.20;100.00;96832.53;5000194;28;20056;-82
2023/05/21 06:44:10;;;;;;;15.35;13.13;;;16.40;99.90;;;16.10;100.00;96815.50;5008821;28;20045;-81
2023/05/21 06:46:36;;;;;;;18.08;13.63;;;16.30;99.90;;;16.10;100.00;96814.66;5002668;28;20072;-83
2023/05/21 06:49:01;;;;;;;15.95;12.68;;;16.30;99.90;;;16.16;100.00;96828.34;5009076;28;20112;-82
2023/05/21 06:51:27;;;;;;;17.48;13.35;;;16.30;99.90;;;16.18;100.00;96830.91;5005340;28;20030;-80
2023/05/21 06:53:53;;;;;;;17.45;12.75;;;16.30;99.90;;;16.12;100.00;96812.72;5005057;28;20041;-80
2023/05/21 06:56:19;;;;;;;16.90;12.48;;;16.30;99.90;;;16.29;100.00;96831.00;5010684;28;20268;-82
2023/05/21 06:58:44;;;;;;;13.82;11.90;;;16.40;99.90;;;16.40;100.00;96832.94;4997755;28;20038;-81
2023/05/21 07:01:13;;;;;;;19.13;14.80;;;16.40;99.90;;;16.49;100.00;96842.97;4993670;28;20029;-81
2023/05/21 07:03:38;;;;;;;17.23;13.38;;;16.60;99.90;;;16.52;100.00;96837.41;4998153;28;20042;-79
2023/05/21 07:06:05;;;;;;;16.70;12.60;;;16.60;99.90;;;16.63;100.00;96841.13;5002711;28;20038;-79
2023/05/21 07:08:30;;;;;;;15.05;11.98;;;16.70;99.90;;;16.71;100.00;96839.63;4996733;28;20040;-80
2023/05/21 07:10:56;;;;;;;17.20;13.25;;;16.80;99.90;;;16.82;100.00;96841.53;4999117;28;20209;-82
2023/05/21 07:13:22;;;;;;;17.80;13.30;;;16.90;99.90;;;16.88;100.00;96838.47;5008158;28;20041;-80
2023/05/21 07:15:48;;;;;;;19.60;14.40;;;17.00;99.90;;;17.01;100.00;96837.59;5016934;28;20185;-79
2023/05/21 07:18:13;;;;;;;18.15;13.45;;;17.10;99.90;;;17.12;100.00;96841.19;4998787;28;20042;-83
2023/05/21 07:20:39;;;;;;;15.35;12.75;;;17.20;99.90;;;17.18;100.00;96829.22;4989458;28;20107;-81
2023/05/21 07:23:05;;;;;;;16.42;11.68;;;17.30;99.90;;;17.42;100.00;96852.38;5000427;28;20030;-82
2023/05/21 07:25:30;;;;;;;15.55;12.38;;;17.40;99.90;;;17.54;100.00;96851.47;5006300;28;20032;-82
2023/05/21 07:27:56;;;;;;;16.85;12.90;;;17.60;99.90;;;17.40;100.00;96817.00;5004886;28;20025;-81
2023/05/21 07:30:22;;;;;;;17.65;13.32;;;17.60;99.90;;;17.60;100.00;96850.19;5010451;28;20029;-82
2023/05/21 07:32:47;;;;;;;18.52;13.20;;;17.70;99.90;;;17.70;100.00;96859.19;5004488;28;20034;-82
2023/05/21 07:35:13;;;;;;;16.42;12.13;;;17.70;99.90;;;17.66;100.00;96828.41;5006841;28;20079;-82
2023/05/21 07:37:39;;;;;;;16.38;12.48;;;17.90;99.90;;;17.90;100.00;96844.41;4996618;28;20093;-83
2023/05/21 07:40:06;;;;;;;16.88;11.90;;;18.00;99.90;;;18.00;100.00;96844.53;5004925;28;20034;-83
2023/05/21 07:42:32;;;;;;;14.05;11.60;;;18.10;99.90;;;18.06;100.00;96844.09;5001301;28;20053;-82
2023/05/21 07:44:58;;;;;;;15.27;12.73;;;18.10;99.90;;;18.00;100.00;96832.09;5002838;28;20037;-79
2023/05/21 07:47:24;;;;;;;16.50;12.40;;;18.20;99.90;;;18.17;100.00;96830.78;5001279;28;20251;-81
2023/05/21 07:49:50;;;;;;;15.68;12.32;;;18.30;99.90;;;18.40;100.00;96849.53;5003911;28;20484;-81
2023/05/21 07:52:16;;;;;;;18.13;12.52;;;18.40;99.90;;;18.50;100.00;96824.66;5006470;28;20038;-80
2023/05/21 07:54:41;;;;;;;15.57;12.20;;;18.70;99.90;;;18.74;100.00;96834.38;5002323;28;20084;-80
2023/05/21 07:57:07;;;;;;;15.95;12.95;;;18.90;99.90;;;18.97;100.00;96835.25;5009959;28;20022;-80
2023/05/21 07:59:33;;;;;;;16.98;12.13;;;19.00;99.90;;;19.03;100.00;96829.41;5005404;28;20021;-82
2023/05/21 08:01:58;;;;;;;15.73;11.65;;;19.20;99.90;;;19.16;100.00;96831.09;5003497;28;20062;-82
2023/05/21 08:04:25;;;;;;;16.52;12.60;;;19.30;99.90;;;19.23;100.00;96846.50;4996212;28;20321;-80
2023/05/21 08:06:50;;;;;;;13.80;10.82;;;19.40;99.90;;;19.42;100.00;96837.00;5004710;28;20190;-80
2023/05/21 08:09:17;;;;;;;14.10;11.68;;;19.50;99.90;;;19.59;100.00;96843.63;4990464;28;20098;-82
2023/05/21 08:11:43;;;;;;;13.75;11.32;;;19.70;99.90;;;19.59;100.00;96828.44;5002388;28;20068;-81
2023/05/21 08:14:09;;;;;;;13.50;11.25;;;19.80;99.90;;;19.66;99.26;96823.44;5005690;28;20030;-80
2023/05/21 08:16:35;;;;;;;14.95;10.98;;;19.80;99.90;;;19.78;100.00;96816.25;5000207;28;21210;-80
2023/05/21 08:19:01;;;;;;;14.75;10.65;;;19.90;99.90;;;19.89;98.53;96826.91;5005926;28;20270;-82
2023/05/21 08:21:26;;;;;;;15.20;11.48;;;20.10;99.90;;;20.09;100.00;96827.03;4986335;28;20030;-79
2023/05/21 08:23:52;;;;;;;12.32;10.10;;;20.20;99.90;;;20.21;92.85;96837.56;4983580;28;20042;-79
2023/05/21 08:26:18;;;;;;;15.18;11.32;;;20.40;99.90;;;20.36;90.64;96834.56;4990332;28;20048;-81
2023/05/21 08:28:44;;;;;;;13.38;10.52;;;20.50;99.90;;;20.46;87.09;96848.84;4976976;28;20069;-80
2023/05/21 08:31:11;;;;;;;16.95;11.32;;;20.60;99.90;;;20.50;90.01;96838.72;5008852;28;20592;-79
2023/05/21 08:33:37;;;;;;;14.93;11.00;;;20.70;99.90;;;20.65;84.71;96841.94;5000772;28;20037;-80
2023/05/21 08:36:06;;;;;;;16.40;12.30;;;20.90;99.90;;;20.48;85.28;96843.38;5000858;28;20041;-80
2023/05/21 08:38:33;;;;;;;11.73;9.80;;;20.80;99.90;;;20.62;88.82;96839.50;5004476;28;20030;-80
2023/05/21 08:40:59;;;;;;;13.30;10.98;;;20.80;99.90;;;20.60;86.93;96831.56;5000663;28;20037;-80
2023/05/21 08:43:27;;;;;;;13.73;10.38;;;20.80;99.90;;;20.63;86.42;96828.66;5004234;28;20033;-80
2023/05/21 08:45:56;;;;;;;11.73;10.48;;;20.80;99.90;;;20.72;87.81;96843.94;4996241;28;20932;-79
2023/05/21 08:48:23;;;;;;;15.52;10.70;;;20.90;99.90;;;20.70;84.99;96829.84;4997353;28;21294;-80
2023/05/21 08:50:52;;;;;;;12.73;10.18;;;21.00;99.90;;;20.89;82.31;96842.47;4992277;28;20069;-80
2023/05/21 08:53:17;;;;;;;13.07;10.00;;;21.00;99.90;;;20.83;82.21;96829.59;5008930;28;20144;-78
2023/05/21 08:55:43;;;;;;;12.02;9.13;;;21.10;99.90;;;20.95;85.07;96836.56;5001575;28;20125;-78
2023/05/21 08:58:09;;;;;;;11.60;10.10;;;21.10;99.90;;;21.06;77.56;96854.38;5005999;28;20179;-79
2023/05/21 09:00:36;;;;;;;12.18;9.65;;;21.20;99.90;;;21.05;75.54;96831.25;4988144;28;20042;-79
2023/05/21 09:03:09;;;;;;;12.05;9.48;;;21.20;99.90;;;21.08;72.80;96836.31;5003919;28;20042;-78
2023/05/21 09:05:38;;;;;;;17.95;11.32;;;21.20;99.90;;;21.07;78.82;96850.72;4996370;28;20113;-78
2023/05/21 09:08:07;;;;;;;13.00;10.63;;;21.20;99.90;;;21.04;75.28;96853.69;5000756;28;20026;-77
2023/05/21 09:10:38;;;;;;;12.20;10.55;;;21.20;99.90;;;21.06;77.52;96850.88;5005884;28;20041;-78
2023/05/21 09:13:04;;;;;;;13.98;9.63;;;21.20;99.90;;;21.14;82.72;96848.38;5007077;28;20021;-79
2023/05/21 09:15:30;;;;;;;14.13;10.73;;;21.20;99.90;;;21.06;79.72;96830.25;4998455;28;20089;-79
2023/05/21 09:17:56;;;;;;;14.70;11.60;;;21.30;99.90;;;21.09;80.87;96853.28;5000841;28;20044;-78
2023/05/21 09:20:26;;;;;;;17.50;11.15;;;21.30;99.90;;;21.10;76.51;96857.66;5001233;28;20346;-77
2023/05/21 09:22:54;;;;;;;13.30;9.07;;;21.30;99.90;;;21.17;76.44;96856.13;4998908;28;20029;-78
2023/05/21 09:25:37;;;;;;;15.55;11.15;;;21.30;99.90;;;20.93;76.50;96826.97;5002023;28;20604;-77
2023/05/21 09:31:44;;;;;;;14.45;10.02;;;21.20;99.90;;;20.58;75.26;96788.88;4984957;28;20057;-79
2023/05/21 09:34:10;;;;;;;12.07;8.95;;;21.20;99.90;;;21.00;77.71;96852.25;4991733;28;20033;-79
2023/05/21 09:36:37;;;;;;;12.32;9.00;;;21.10;99.90;;;21.04;78.93;96847.47;4988783;28;20044;-80
2023/05/21 09:39:03;;;;;;;12.70;9.90;;;21.10;99.90;;;20.97;76.41;96839.13;4996943;28;20041;-81
2023/05/21 09:41:34;;;;;;;13.68;9.75;;;21.10;99.90;;;21.08;72.83;96860.47;4999142;28;20025;-80
2023/05/21 09:44:01;;;;;;;12.48;9.45;;;21.20;99.90;;;21.09;74.19;96862.16;4969647;28;20121;-78
2023/05/21 09:46:39;;;;;;;14.45;10.07;;;21.20;99.90;;;21.00;72.28;96854.94;4993009;28;20029;-79
2023/05/21 09:49:04;;;;;;;12.02;9.60;;;21.30;99.90;;;21.11;69.53;96844.09;4992046;28;20169;-79
2023/05/21 09:51:30;;;;;;;11.23;8.82;;;21.40;99.90;;;21.22;71.50;96850.34;4984672;28;20034;-78
2023/05/21 09:53:56;;;;;;;14.75;9.63;;;21.40;99.90;;;21.29;70.11;96868.44;4990280;28;20546;-78
2023/05/21 09:56:30;;;;;;;11.23;9.52;;;21.50;99.90;;;21.50;69.67;96862.19;4989817;28;20029;-78
2023/05/21 09:59:03;;;;;;;12.85;9.60;;;21.80;99.90;;;21.67;69.05;96858.81;4988997;28;20052;-79
2023/05/21 10:01:32;;;;;;;13.68;9.48;;;21.90;99.90;;;21.66;66.40;96843.72;4976072;28;20034;-79
2023/05/21 10:04:04;;;;;;;12.07;8.98;;;22.00;99.90;;;21.89;74.02;96855.03;4989039;28;20033;-79